Time;durP1;ratioP1;P1;durP2;ratioP2;P2;SDS_P1;SDS_P2;PMS_P1;PMS_P2;Temp;Humidity;BMP_temperature;BMP_pressure;BME280_temperature;BME280_humidity;BME280_pressure;Samples;Min_cycle;Max_cycle;Signal;HPM_P1;HPM_P2
2022/09/02 00:06:26;;;;;;;0.93;0.82;;;;;;;22.85;35.27;100408.78;20666915;28;20496;-76
2022/09/02 00:16:26;;;;;;;1.65;0.82;;;;;;;22.71;35.38;100409.09;20656329;28;23093;-75
2022/09/02 00:26:27;;;;;;;0.60;0.60;;;;;;;22.66;35.32;100400.72;20623764;28;20029;-76
2022/09/02 00:36:27;;;;;;;2.47;0.80;;;;;;;22.61;35.68;100413.50;20648243;28;20046;-76
2022/09/02 00:46:30;;;;;;;2.83;0.77;;;;;;;22.52;36.11;100410.63;20658019;28;20054;-76
2022/09/02 00:56:32;;;;;;;1.45;0.80;;;;;;;22.49;35.76;100402.97;20659758;28;20064;-76
2022/09/02 01:06:33;;;;;;;2.10;0.70;;;;;;;22.42;35.94;100399.16;20656705;28;20696;-76
2022/09/02 01:16:40;;;;;;;0.85;0.70;;;;;;;22.42;36.03;100395.69;20666428;28;20375;-75
2022/09/02 01:26:41;;;;;;;1.73;1.10;;;;;;;22.36;36.07;100391.72;20660136;28;20453;-76
2022/09/02 01:36:43;;;;;;;2.30;1.00;;;;;;;22.29;35.92;100394.03;20673468;28;20041;-76
2022/09/02 01:46:44;;;;;;;1.53;0.90;;;;;;;22.27;35.36;100392.50;20667513;28;20057;-75
2022/09/02 01:56:44;;;;;;;1.10;0.77;;;;;;;22.21;35.45;100385.91;20633941;28;20185;-75
2022/09/02 02:06:48;;;;;;;3.95;0.75;;;;;;;22.15;35.54;100381.97;20658885;28;20537;-75
2022/09/02 02:16:49;;;;;;;1.85;0.60;;;;;;;22.13;35.42;100380.41;20656640;28;20932;-75
2022/09/02 02:26:50;;;;;;;1.30;0.63;;;;;;;22.11;35.65;100382.38;20634300;28;20039;-76
2022/09/02 02:36:50;;;;;;;1.17;0.80;;;;;;;22.10;35.55;100367.50;20598658;28;20046;-76
2022/09/02 02:46:51;;;;;;;2.05;0.70;;;;;;;22.04;35.61;100374.91;20654664;28;20138;-76
2022/09/02 02:56:52;;;;;;;1.17;0.80;;;;;;;22.04;35.02;100366.19;20665142;28;20084;-75
2022/09/02 03:06:52;;;;;;;2.25;0.80;;;;;;;22.05;35.03;100368.69;20659483;28;20042;-76
2022/09/02 03:16:53;;;;;;;3.05;0.98;;;;;;;22.03;34.79;100356.59;20650297;28;20049;-76
2022/09/02 03:26:53;;;;;;;1.58;0.70;;;;;;;22.04;34.88;100359.09;20648818;28;20033;-76
2022/09/02 03:36:54;;;;;;;1.30;0.90;;;;;;;22.04;35.02;100359.09;20631139;28;20046;-76
2022/09/02 03:46:54;;;;;;;2.20;1.60;;;;;;;22.04;34.71;100367.00;20653211;28;20073;-75
2022/09/02 03:56:59;;;;;;;1.13;1.00;;;;;;;21.98;34.44;100364.88;20652437;28;20474;-76
2022/09/02 04:06:59;;;;;;;2.70;0.80;;;;;;;21.98;34.71;100364.88;20656783;28;20129;-76
2022/09/02 04:17:00;;;;;;;1.08;0.88;;;;;;;22.02;34.95;100360.19;20640079;28;20049;-80
2022/09/02 04:27:01;;;;;;;3.65;0.90;;;;;;;21.96;34.79;100371.25;20648565;28;20117;-78
2022/09/02 04:37:02;;;;;;;5.13;1.00;;;;;;;21.91;35.11;100364.56;20666460;28;20184;-78
2022/09/02 04:47:02;;;;;;;2.65;0.93;;;;;;;21.96;34.82;100376.50;20603381;28;20051;-78
2022/09/02 04:57:03;;;;;;;4.32;1.02;;;;;;;21.87;35.13;100372.81;20623410;28;20039;-77
2022/09/02 05:07:03;;;;;;;1.67;0.80;;;;;;;22.11;35.79;100382.38;20669403;28;20037;-77
2022/09/02 05:17:04;;;;;;;3.42;1.00;;;;;;;22.26;36.30;100386.38;20682254;28;20330;-77
2022/09/02 05:27:04;;;;;;;2.53;1.10;;;;;;;22.25;35.28;100386.50;20680980;28;20044;-78
2022/09/02 05:37:05;;;;;;;2.78;0.98;;;;;;;22.42;34.91;100387.78;20716933;28;20409;-78
2022/09/02 05:47:05;;;;;;;2.28;1.00;;;;;;;22.57;35.20;100383.03;20702016;28;20058;-78
2022/09/02 05:57:11;;;;;;;1.40;0.90;;;;;;;22.63;35.27;100378.09;20660856;28;20468;-78
2022/09/02 06:07:13;;;;;;;4.93;1.17;;;;;;;22.73;35.22;100375.50;20658478;28;20045;-78
2022/09/02 06:17:13;;;;;;;1.27;0.70;;;;;;;22.82;35.11;100382.63;20643313;28;20144;-79
2022/09/02 06:27:14;;;;;;;3.97;1.08;;;;;;;22.89;35.13;100396.16;20653382;28;20064;-79
2022/09/02 06:37:14;;;;;;;1.35;0.90;;;;;;;22.95;35.04;100394.78;20658478;28;20052;-75
2022/09/02 06:47:15;;;;;;;2.33;0.90;;;;;;;22.98;34.76;100392.72;20691336;28;20515;-75
2022/09/02 06:57:16;;;;;;;2.58;0.70;;;;;;;23.02;34.91;100398.56;20735734;28;20041;-75
2022/09/02 07:07:16;;;;;;;0.75;0.73;;;;;;;23.08;34.70;100394.59;20718684;28;20068;-77
2022/09/02 07:17:20;;;;;;;1.00;0.73;;;;;;;23.15;34.94;100393.09;20741516;28;20104;-77
2022/09/02 07:27:21;;;;;;;1.40;0.75;;;;;;;23.23;34.64;100398.59;20725563;28;20336;-77
2022/09/02 07:37:21;;;;;;;2.47;0.70;;;;;;;23.30;34.75;100406.81;20710449;28;20047;-76
2022/09/02 07:47:21;;;;;;;1.42;0.80;;;;;;;23.36;35.05;100401.00;20677410;28;20338;-76
2022/09/02 07:57:23;;;;;;;1.63;1.00;;;;;;;23.44;34.85;100395.06;20690383;28;20045;-77
2022/09/02 08:07:23;;;;;;;1.63;0.80;;;;;;;23.48;35.07;100388.53;20658769;28;20073;-78
2022/09/02 08:17:24;;;;;;;1.70;0.90;;;;;;;23.50;34.71;100395.34;20693149;28;20056;-77
2022/09/02 08:27:26;;;;;;;2.55;1.10;;;;;;;23.55;34.90;100388.84;20662446;28;20065;-78
2022/09/02 08:37:26;;;;;;;2.53;0.93;;;;;;;23.59;35.01;100388.41;20689852;28;20067;-76
2022/09/02 08:47:32;;;;;;;2.72;1.00;;;;;;;23.65;35.06;100387.88;20683012;28;20054;-77
2022/09/02 08:57:32;;;;;;;1.33;0.70;;;;;;;23.69;35.10;100382.34;20723913;28;20522;-77
2022/09/02 09:07:45;;;;;;;1.45;0.80;;;;;;;23.74;35.34;100380.97;20701286;28;20037;-76
2022/09/02 09:17:58;;;;;;;1.58;0.80;;;;;;;23.79;35.34;100372.59;20681907;28;20472;-77
2022/09/02 09:28:00;;;;;;;3.30;0.90;;;;;;;23.85;35.58;100376.53;20688855;28;20075;-76
2022/09/02 09:38:12;;;;;;;1.57;1.00;;;;;;;23.90;35.76;100369.00;20643162;28;21714;-77
2022/09/02 09:48:18;;;;;;;3.55;1.00;;;;;;;23.97;36.07;100359.59;20691705;28;20080;-77
2022/09/02 09:58:20;;;;;;;5.82;1.10;;;;;;;24.02;36.21;100348.59;20682106;28;20050;-76
2022/09/02 10:08:24;;;;;;;3.58;1.30;;;;;;;24.01;35.48;100345.13;20645577;28;20042;-77
2022/09/02 10:18:44;;;;;;;10.88;1.42;;;;;;;24.02;35.47;100346.78;20682033;28;21294;-76
2022/09/02 10:28:54;;;;;;;6.57;1.55;;;;;;;24.16;35.87;100340.25;20642032;28;20045;-77
2022/09/02 10:39:07;;;;;;;10.23;1.85;;;;;;;24.24;35.64;100350.13;20722223;28;20410;-76
2022/09/02 10:49:29;;;;;;;6.47;1.73;;;;;;;24.29;35.90;100347.88;20719985;28;20045;-75
2022/09/02 10:59:48;;;;;;;5.65;1.67;;;;;;;24.35;35.32;100335.91;20687707;28;20505;-75
2022/09/02 11:10:14;;;;;;;1.75;1.30;;;;;;;24.37;35.29;100349.84;20657476;28;20077;-76
2022/09/02 11:20:45;;;;;;;2.17;1.30;;;;;;;24.36;34.96;100334.94;20654759;28;20917;-76
2022/09/02 11:31:02;;;;;;;2.87;2.00;;;;;;;24.35;35.14;100326.19;20678702;28;20041;-76
2022/09/02 11:41:15;;;;;;;3.55;1.40;;;;;;;24.43;35.41;100314.88;20679869;28;20042;-76
2022/09/02 11:51:29;;;;;;;3.00;1.60;;;;;;;24.53;34.94;100320.16;20710735;28;20049;-76
2022/09/02 12:01:31;;;;;;;4.70;1.48;;;;;;;24.64;34.41;100301.44;20679428;28;20042;-77
2022/09/02 12:11:40;;;;;;;3.42;1.25;;;;;;;24.65;34.12;100302.28;20686700;28;20096;-77
2022/09/02 12:22:14;;;;;;;1.60;1.30;;;;;;;24.69;33.20;100303.69;20671493;28;20446;-76
2022/09/02 12:32:49;;;;;;;4.45;1.52;;;;;;;24.78;34.38;100297.53;20691222;28;20070;-77
2022/09/02 12:42:50;;;;;;;3.58;1.40;;;;;;;24.86;33.08;100281.75;20691036;28;20136;-77
2022/09/02 12:53:09;;;;;;;8.00;2.63;;;;;;;24.86;34.43;100283.56;20675848;28;20046;-74
2022/09/02 13:03:36;;;;;;;5.63;2.03;;;;;;;24.91;35.00;100270.72;20647635;28;20074;-76
2022/09/02 13:13:39;;;;;;;3.75;1.60;;;;;;;24.93;34.56;100266.94;20664887;28;20048;-76
2022/09/02 13:23:45;;;;;;;4.00;1.70;;;;;;;24.90;34.38;100264.59;20714987;28;20038;-78
2022/09/02 13:33:56;;;;;;;5.47;2.30;;;;;;;24.88;33.84;100258.59;20708526;28;20041;-76
2022/09/02 13:44:20;;;;;;;4.30;1.90;;;;;;;24.86;34.42;100257.91;20704726;28;20042;-75
2022/09/02 13:54:30;;;;;;;3.30;1.95;;;;;;;24.89;34.24;100247.03;20680384;28;20050;-78
2022/09/02 14:04:34;;;;;;;6.70;1.50;;;;;;;24.94;34.39;100241.31;20686842;28;21426;-76
2022/09/02 14:14:35;;;;;;;3.35;2.45;;;;;;;24.90;34.13;100242.56;20702180;28;20037;-76
2022/09/02 14:24:40;;;;;;;5.20;2.30;;;;;;;24.89;34.42;100246.19;20679547;28;20401;-78
2022/09/02 14:34:44;;;;;;;7.28;3.03;;;;;;;25.02;34.46;100249.31;20680012;28;20038;-78
2022/09/02 14:44:51;;;;;;;3.35;2.22;;;;;;;24.98;34.09;100244.50;20710190;28;20037;-79
2022/09/02 14:54:53;;;;;;;3.80;2.00;;;;;;;25.05;33.69;100250.88;20693931;28;20037;-79
2022/09/02 15:04:56;;;;;;;3.40;1.83;;;;;;;25.12;34.60;100270.50;20635601;28;20038;-76
2022/09/02 15:14:57;;;;;;;5.38;2.40;;;;;;;25.09;35.45;100268.94;20581859;28;20054;-74
2022/09/02 15:24:57;;;;;;;5.67;2.03;;;;;;;25.02;35.46;100277.63;20674044;28;20042;-72
2022/09/02 15:34:57;;;;;;;2.58;1.98;;;;;;;24.93;36.01;100277.53;20662520;28;20160;-72
2022/09/02 15:45:01;;;;;;;5.10;2.78;;;;;;;24.92;36.22;100288.28;20665395;28;20046;-72
2022/09/02 15:55:02;;;;;;;7.50;2.33;;;;;;;24.89;36.35;100296.50;20646736;28;20042;-73
2022/09/02 16:05:03;;;;;;;8.60;2.85;;;;;;;24.88;36.41;100308.91;20660451;28;20426;-72
2022/09/02 16:15:04;;;;;;;4.87;2.57;;;;;;;24.88;36.52;100311.56;20652659;28;20077;-75
2022/09/02 16:25:05;;;;;;;5.00;2.17;;;;;;;24.82;37.08;100327.22;20648069;28;20049;-73
2022/09/02 16:35:06;;;;;;;4.60;2.07;;;;;;;24.78;37.22;100326.66;20620272;28;20045;-73
2022/09/02 16:45:07;;;;;;;4.60;2.30;;;;;;;24.72;37.13;100338.66;20659664;28;20044;-74
2022/09/02 16:55:09;;;;;;;6.30;2.30;;;;;;;24.67;37.29;100332.97;20664038;28;20144;-73
2022/09/02 17:05:09;;;;;;;10.18;2.95;;;;;;;24.60;37.56;100334.47;20683256;28;20042;-74
2022/09/02 17:15:10;;;;;;;4.90;3.78;;;;;;;24.58;37.84;100342.56;20639037;28;20084;-76
2022/09/02 17:25:11;;;;;;;6.95;3.08;;;;;;;24.56;38.17;100344.53;20626473;28;20049;-73
2022/09/02 17:35:12;;;;;;;9.90;2.50;;;;;;;24.30;37.67;100346.91;20592186;28;20038;-74
2022/09/02 17:45:12;;;;;;;3.92;2.15;;;;;;;24.20;37.79;100340.81;20678417;28;20550;-75
2022/09/02 17:55:12;;;;;;;6.00;3.45;;;;;;;24.21;38.32;100353.06;20673068;28;20140;-75
2022/09/02 18:05:29;;;;;;;4.70;2.70;;;;;;;24.32;38.42;100366.13;20638124;28;20036;-78
2022/09/02 18:15:42;;;;;;;5.22;2.72;;;;;;;24.41;38.35;100370.59;20649621;28;20267;-77
2022/09/02 18:25:43;;;;;;;11.35;6.88;;;;;;;24.53;39.29;100376.56;20672892;28;20100;-76
2022/09/02 18:35:59;;;;;;;9.83;7.13;;;;;;;24.59;39.20;100368.03;20670628;28;20054;-75
2022/09/02 18:46:01;;;;;;;12.60;6.45;;;;;;;24.67;39.00;100371.84;20669086;28;20519;-75
2022/09/02 18:56:04;;;;;;;;;;;;;;;24.62;38.55;100359.84;20676880;28;20038;-77
2022/09/02 19:06:10;;;;;;;8.55;4.60;;;;;;;24.76;39.55;100376.28;20690396;28;19921;-77
2022/09/02 19:16:24;;;;;;;3.53;2.80;;;;;;;24.65;38.27;100377.25;20668972;28;20508;-77
2022/09/02 19:26:25;;;;;;;3.58;2.30;;;;;;;24.46;38.63;100383.38;20657690;28;20490;-76
2022/09/02 19:36:28;;;;;;;3.58;2.33;;;;;;;24.33;38.72;100383.69;20655976;28;20061;-77
2022/09/02 19:46:29;;;;;;;7.50;3.38;;;;;;;24.14;39.09;100387.16;20563498;28;20077;-73
2022/09/02 19:56:29;;;;;;;7.38;3.20;;;;;;;23.99;39.63;100384.09;20589602;28;20390;-74
2022/09/02 20:06:29;;;;;;;4.43;3.17;;;;;;;23.89;39.95;100391.97;20642137;28;20038;-74
2022/09/02 20:16:33;;;;;;;4.97;2.80;;;;;;;23.75;40.18;100384.44;20600989;28;20763;-76
2022/09/02 20:26:52;;;;;;;5.30;2.45;;;;;;;23.62;40.65;100390.81;20644007;28;20037;-73
2022/09/02 20:37:02;;;;;;;4.50;2.42;;;;;;;23.40;41.37;100404.22;20646039;28;20167;-74
2022/09/02 20:47:24;;;;;;;3.33;2.63;;;;;;;23.31;41.49;100390.84;20636391;28;20060;-76
2022/09/02 20:58:14;;;;;;;4.65;2.70;;;;;;;23.29;41.51;100403.34;20655359;28;20195;-73
2022/09/02 21:08:31;;;;;;;5.10;2.70;;;;;;;23.29;41.46;100406.00;20662395;28;20086;-74
2022/09/02 21:18:39;;;;;;;4.15;2.47;;;;;;;23.23;41.96;100406.53;20669136;28;20403;-74
2022/09/02 21:28:49;;;;;;;5.70;2.75;;;;;;;23.16;41.79;100398.28;20578814;28;20046;-73
2022/09/02 21:38:53;;;;;;;4.30;2.63;;;;;;;23.10;42.21;100404.06;20575787;28;20421;-74
2022/09/02 21:49:26;;;;;;;6.30;3.00;;;;;;;23.07;42.42;100406.97;20650773;28;20061;-76
2022/09/02 21:59:38;;;;;;;7.22;2.88;;;;;;;23.02;42.24;100406.50;20630030;28;20065;-74
2022/09/02 22:09:40;;;;;;;5.45;2.38;;;;;;;22.94;42.58;100409.81;20643264;28;20123;-74
2022/09/02 22:19:41;;;;;;;7.60;2.70;;;;;;;22.91;42.76;100402.16;20641675;28;20050;-74
2022/09/02 22:29:50;;;;;;;3.95;2.40;;;;;;;22.88;42.98;100398.94;20631980;28;20112;-74
2022/09/02 22:39:55;;;;;;;4.35;2.50;;;;;;;22.84;43.31;100401.00;20636165;28;20045;-73
2022/09/02 23:00:21;;;;;;;5.25;2.70;;;;;;;22.74;43.52;100392.16;20640549;28;20157;-73
2022/09/02 23:10:23;;;;;;;;;;;;;;;22.75;43.47;100375.38;20646962;28;24640;-73
2022/09/02 23:21:03;;;;;;;5.70;2.72;;;;;;;22.69;43.77;100382.84;20646503;28;19932;-74
2022/09/02 23:31:24;;;;;;;6.70;2.70;;;;;;;22.60;44.30;100382.78;20642841;28;20049;-73
2022/09/02 23:41:25;;;;;;;5.90;2.80;;;;;;;22.52;44.46;100375.47;20645656;28;20065;-74
2022/09/02 23:51:38;;;;;;;8.15;3.53;;;;;;;22.47;44.07;100375.03;20654303;28;20583;-76
